createdAt,value
2022-10-13T00:00:47.428Z,15.68
2022-10-13T00:03:14.943Z,15.69
2022-10-13T00:05:43.731Z,15.65
2022-10-13T00:08:11.661Z,15.64
2022-10-13T00:10:40.349Z,15.64
2022-10-13T00:13:08.903Z,15.59
2022-10-13T00:15:40.306Z,15.59
2022-10-13T00:18:07.632Z,15.59
2022-10-13T00:20:35.565Z,15.58
2022-10-13T00:23:02.417Z,15.57
2022-10-13T00:25:29.337Z,15.57
2022-10-13T00:27:56.191Z,15.53
2022-10-13T00:30:23.067Z,15.53
2022-10-13T00:32:49.916Z,15.51
2022-10-13T00:35:16.795Z,15.49
2022-10-13T00:37:43.621Z,15.49
2022-10-13T00:40:11.108Z,15.48
2022-10-13T00:42:41.478Z,15.47
2022-10-13T00:45:29.725Z,15.45
2022-10-13T00:47:59.572Z,15.43
2022-10-13T00:50:33.890Z,15.41
2022-10-13T00:53:02.083Z,15.40
2022-10-13T00:55:32.310Z,15.40
2022-10-13T00:58:05.216Z,15.39
2022-10-13T01:00:33.554Z,15.38
2022-10-13T01:03:01.655Z,15.37
2022-10-13T01:05:29.914Z,15.34
2022-10-13T01:07:58.510Z,15.33
2022-10-13T01:10:36.495Z,15.32
2022-10-13T01:13:17.379Z,15.29
2022-10-13T01:15:59.964Z,15.30
2022-10-13T01:18:51.603Z,15.29
2022-10-13T01:21:21.402Z,15.28
2022-10-13T01:24:25.940Z,15.25
2022-10-13T01:27:20.377Z,15.26
2022-10-13T01:30:07.737Z,15.20
2022-10-13T01:32:53.425Z,15.21
2022-10-13T01:35:43.447Z,15.19
2022-10-13T01:38:37.035Z,15.18
2022-10-13T01:41:37.538Z,15.18
2022-10-13T01:44:26.303Z,15.18
2022-10-13T01:46:54.858Z,15.14
2022-10-13T01:49:27.799Z,15.14
2022-10-13T01:51:57.159Z,15.11
2022-10-13T01:54:23.956Z,15.10
2022-10-13T01:56:55.125Z,15.11
2022-10-13T01:59:22.872Z,15.09
2022-10-13T02:02:08.357Z,15.07
2022-10-13T02:05:08.233Z,15.07
2022-10-13T02:07:46.346Z,15.06
2022-10-13T02:10:44.671Z,15.06
2022-10-13T02:13:14.857Z,15.04
2022-10-13T02:15:46.515Z,15.01
2022-10-13T02:18:17.352Z,15.02
2022-10-13T02:20:46.233Z,15.03
2022-10-13T02:23:19.062Z,15.04
2022-10-13T02:25:47.902Z,15.03
2022-10-13T02:28:15.932Z,15.02
2022-10-13T02:30:45.025Z,15.02
2022-10-13T02:33:13.492Z,15.02
2022-10-13T02:35:41.059Z,15.03
2022-10-13T02:38:08.030Z,15.01
2022-10-13T02:40:34.948Z,15.01
2022-10-13T02:43:01.751Z,15.00
2022-10-13T02:45:28.658Z,15.00
2022-10-13T02:47:55.876Z,14.97
2022-10-13T02:50:22.669Z,14.97
2022-10-13T02:52:49.513Z,14.95
2022-10-13T02:55:16.376Z,14.96
2022-10-13T02:57:43.250Z,14.94
2022-10-13T03:00:10.629Z,14.93
2022-10-13T03:02:37.523Z,14.93
2022-10-13T03:05:04.821Z,14.90
2022-10-13T03:07:31.751Z,14.90
2022-10-13T03:09:58.578Z,14.90
2022-10-13T03:12:25.410Z,14.89
2022-10-13T03:14:52.241Z,14.87
2022-10-13T03:17:19.087Z,14.86
2022-10-13T03:19:46.000Z,14.84
2022-10-13T03:22:15.627Z,14.83
2022-10-13T03:24:43.161Z,14.82
2022-10-13T03:27:10.044Z,14.81
2022-10-13T03:29:36.930Z,14.79
2022-10-13T03:32:03.993Z,14.79
2022-10-13T03:34:30.823Z,14.79
2022-10-13T03:36:58.072Z,14.79
2022-10-13T03:39:25.143Z,14.80
2022-10-13T03:41:52.063Z,14.75
2022-10-13T03:44:18.841Z,14.76
2022-10-13T03:46:45.723Z,14.76
2022-10-13T03:49:12.730Z,14.74
2022-10-13T03:51:39.787Z,14.74
2022-10-13T03:54:06.628Z,14.71
2022-10-13T03:56:33.467Z,14.73
2022-10-13T03:59:01.137Z,14.71
2022-10-13T04:01:30.526Z,14.69
2022-10-13T04:03:58.606Z,14.70
2022-10-13T04:06:26.825Z,14.69
2022-10-13T04:08:54.254Z,14.68
2022-10-13T04:11:21.853Z,14.66
2022-10-13T04:13:48.735Z,14.63
2022-10-13T04:16:21.898Z,14.62
2022-10-13T04:18:54.692Z,14.62
2022-10-13T04:21:22.892Z,14.62
2022-10-13T04:23:50.393Z,14.62
2022-10-13T04:26:20.641Z,14.60
2022-10-13T04:28:49.280Z,14.61
2022-10-13T04:31:16.803Z,14.60
2022-10-13T04:33:44.599Z,14.58
2022-10-13T04:36:13.414Z,14.58
2022-10-13T04:38:41.069Z,14.55
2022-10-13T04:41:09.293Z,14.55
2022-10-13T04:43:36.740Z,14.54
2022-10-13T04:46:09.033Z,14.53
2022-10-13T04:48:35.920Z,14.53
2022-10-13T04:51:09.228Z,14.50
2022-10-13T04:53:37.083Z,14.50
2022-10-13T04:56:06.389Z,14.49
2022-10-13T04:58:33.189Z,14.49
2022-10-13T05:01:00.117Z,14.46
2022-10-13T05:03:27.507Z,14.46
2022-10-13T05:05:54.809Z,14.45
2022-10-13T05:08:21.930Z,14.46
2022-10-13T05:11:00.576Z,14.44
2022-10-13T05:13:28.928Z,14.42
2022-10-13T05:15:56.623Z,14.42
2022-10-13T05:18:24.719Z,14.42
2022-10-13T05:20:51.606Z,14.46
2022-10-13T05:23:18.562Z,14.46
2022-10-13T05:25:45.380Z,14.49
2022-10-13T05:28:12.252Z,14.50
2022-10-13T05:30:39.557Z,14.51
2022-10-13T05:33:06.364Z,14.53
2022-10-13T05:35:33.206Z,14.55
2022-10-13T05:37:59.991Z,14.56
2022-10-13T05:40:26.879Z,14.59
2022-10-13T05:42:53.867Z,14.60
2022-10-13T05:45:22.104Z,14.61
2022-10-13T05:47:49.003Z,14.56
2022-10-13T05:50:15.981Z,14.56
2022-10-13T05:52:43.623Z,14.55
2022-10-13T05:55:13.589Z,14.56
2022-10-13T05:57:48.723Z,14.55
2022-10-13T06:00:18.136Z,14.55
2022-10-13T06:03:03.613Z,14.57
2022-10-13T06:05:33.061Z,14.57
2022-10-13T06:08:00.604Z,14.56
2022-10-13T06:10:27.766Z,14.54
2022-10-13T06:12:54.605Z,14.56
2022-10-13T06:15:25.647Z,14.56
2022-10-13T06:17:54.849Z,14.58
2022-10-13T06:20:21.875Z,14.60
2022-10-13T06:22:50.557Z,14.59
2022-10-13T06:25:17.654Z,14.47
2022-10-13T06:27:44.598Z,14.36
2022-10-13T06:30:11.980Z,14.31
2022-10-13T06:32:38.869Z,14.29
2022-10-13T06:35:06.556Z,14.14
2022-10-13T06:37:33.391Z,14.08
2022-10-13T06:40:00.212Z,14.14
2022-10-13T06:42:27.069Z,14.19
2022-10-13T06:44:53.939Z,14.20
2022-10-13T06:47:20.807Z,14.22
2022-10-13T06:49:47.752Z,14.20
2022-10-13T06:52:14.610Z,14.20
2022-10-13T06:54:41.476Z,14.22
2022-10-13T06:57:08.447Z,14.22
2022-10-13T06:59:35.249Z,14.22
2022-10-13T07:02:02.280Z,14.20
2022-10-13T07:04:29.291Z,14.19
2022-10-13T07:06:56.330Z,14.19
2022-10-13T07:09:23.206Z,14.20
2022-10-13T07:11:50.581Z,14.21
2022-10-13T07:14:17.434Z,14.20
2022-10-13T07:16:44.432Z,14.19
2022-10-13T07:19:11.469Z,14.19
2022-10-13T07:21:38.447Z,14.18
2022-10-13T07:24:05.747Z,14.19
2022-10-13T07:26:34.159Z,14.19
2022-10-13T07:29:01.205Z,14.17
2022-10-13T07:31:28.367Z,14.18
2022-10-13T07:33:57.301Z,14.17
2022-10-13T07:36:24.333Z,14.17
2022-10-13T07:38:51.317Z,14.16
2022-10-13T07:41:18.356Z,14.15
2022-10-13T07:43:45.568Z,14.15
2022-10-13T07:46:14.088Z,14.15
2022-10-13T07:48:41.372Z,14.19
2022-10-13T07:51:11.557Z,14.17
2022-10-13T07:53:39.346Z,14.18
2022-10-13T07:56:09.120Z,14.20
2022-10-13T07:58:41.011Z,14.21
2022-10-13T08:01:08.623Z,14.20
2022-10-13T08:06:23.748Z,14.26
2022-10-13T08:08:50.812Z,14.28
2022-10-13T08:11:18.203Z,14.32
2022-10-13T08:13:53.107Z,14.34
2022-10-13T08:16:20.363Z,14.34
2022-10-13T08:18:48.540Z,14.36
2022-10-13T08:24:09.399Z,14.41
2022-10-13T08:26:36.251Z,14.42
2022-10-13T08:29:20.130Z,14.44
2022-10-13T08:34:16.600Z,14.47
2022-10-13T08:36:44.173Z,14.46
2022-10-13T08:39:11.252Z,14.48
2022-10-13T08:41:40.931Z,14.47
2022-10-13T08:47:24.076Z,14.48
2022-10-13T08:49:53.508Z,14.49
2022-10-13T08:52:30.335Z,14.46
2022-10-13T08:54:58.659Z,14.47
2022-10-13T08:57:25.719Z,14.47
2022-10-13T08:59:53.501Z,14.46
2022-10-13T09:02:30.087Z,14.46
2022-10-13T09:04:59.207Z,14.45
2022-10-13T09:07:29.923Z,14.50
2022-10-13T09:09:57.116Z,14.53
2022-10-13T09:12:25.527Z,14.54
2022-10-13T09:15:10.414Z,14.56
2022-10-13T09:17:39.947Z,14.57
2022-10-13T09:20:27.905Z,14.62
2022-10-13T09:23:14.638Z,14.65
2022-10-13T09:25:52.300Z,14.66
2022-10-13T09:28:33.536Z,14.66
2022-10-13T09:31:10.284Z,14.66
2022-10-13T09:33:40.318Z,14.67
2022-10-13T09:36:13.724Z,14.67
2022-10-13T09:38:43.265Z,14.66
2022-10-13T09:41:10.112Z,14.69
2022-10-13T09:43:38.484Z,14.71
2022-10-13T09:46:32.203Z,14.73
2022-10-13T09:49:38.041Z,14.74
2022-10-13T09:52:14.130Z,14.75
2022-10-13T09:54:41.268Z,14.75
2022-10-13T09:57:17.940Z,14.74
2022-10-13T10:00:04.675Z,14.76
2022-10-13T10:02:41.277Z,14.78
2022-10-13T10:05:16.198Z,14.79
2022-10-13T10:07:43.378Z,14.80
2022-10-13T10:10:27.205Z,14.79
2022-10-13T10:12:54.838Z,14.80
2022-10-13T10:15:28.760Z,14.82
2022-10-13T10:18:08.228Z,14.84
2022-10-13T10:20:47.599Z,14.87
2022-10-13T10:23:38.184Z,14.83
2022-10-13T10:26:32.717Z,14.76
2022-10-13T10:29:05.872Z,14.71
2022-10-13T10:31:53.818Z,14.70
2022-10-13T10:34:45.632Z,14.73
2022-10-13T10:37:55.082Z,14.81
2022-10-13T10:40:35.393Z,14.89
2022-10-13T10:43:11.327Z,14.93
2022-10-13T10:45:40.013Z,14.97
2022-10-13T10:48:23.954Z,15.00
2022-10-13T10:50:54.343Z,15.04
2022-10-13T10:53:24.071Z,15.05
2022-10-13T10:56:03.286Z,15.09
2022-10-13T10:58:33.347Z,15.07
2022-10-13T11:01:14.431Z,15.11
2022-10-13T11:03:55.122Z,15.13
2022-10-13T11:06:24.752Z,15.14
2022-10-13T11:08:55.786Z,15.15
2022-10-13T11:11:26.603Z,15.16
2022-10-13T11:14:07.863Z,15.17
2022-10-13T11:16:42.045Z,15.17
2022-10-13T11:19:09.087Z,15.19
2022-10-13T11:21:54.442Z,15.19
2022-10-13T11:24:39.688Z,15.23
2022-10-13T11:27:12.134Z,15.22
2022-10-13T11:29:49.284Z,15.20
2022-10-13T11:32:25.509Z,15.24
2022-10-13T11:35:10.737Z,15.24
2022-10-13T11:38:07.838Z,15.23
2022-10-13T11:41:05.610Z,15.22
2022-10-13T11:44:07.553Z,15.19
2022-10-13T11:46:37.111Z,15.18
2022-10-13T11:49:33.807Z,15.18
2022-10-13T11:52:19.733Z,15.17
2022-10-13T11:55:03.276Z,15.14
2022-10-13T11:57:33.137Z,15.16
2022-10-13T12:00:00.216Z,15.17
2022-10-13T12:02:28.079Z,15.18
2022-10-13T12:05:04.265Z,15.19
2022-10-13T12:07:37.603Z,15.24
2022-10-13T12:10:08.263Z,15.25
2022-10-13T12:12:35.400Z,15.25
2022-10-13T12:15:05.985Z,15.24
2022-10-13T12:17:39.216Z,15.28
2022-10-13T12:20:25.170Z,15.32
2022-10-13T12:22:54.069Z,15.31
2022-10-13T12:25:28.432Z,15.32
2022-10-13T12:27:59.262Z,15.35
2022-10-13T12:30:37.960Z,15.37
2022-10-13T12:33:28.158Z,15.40
2022-10-13T12:35:55.452Z,15.42
2022-10-13T12:38:23.700Z,15.45
2022-10-13T12:40:53.775Z,15.47
2022-10-13T12:43:25.782Z,15.50
2022-10-13T12:45:53.197Z,15.52
2022-10-13T12:48:35.064Z,15.55
2022-10-13T12:51:25.034Z,15.57
2022-10-13T12:53:52.051Z,15.55
2022-10-13T12:56:32.200Z,15.57
2022-10-13T12:58:59.983Z,15.60
2022-10-13T13:01:35.437Z,15.60
2022-10-13T13:04:18.488Z,15.57
2022-10-13T13:06:57.673Z,15.56
2022-10-13T13:09:26.067Z,15.53
2022-10-13T13:12:07.643Z,15.54
2022-10-13T13:14:50.141Z,15.58
2022-10-13T13:17:27.615Z,15.58
2022-10-13T13:20:00.220Z,15.59
2022-10-13T13:22:27.533Z,15.62
2022-10-13T13:24:54.799Z,15.65
2022-10-13T13:27:27.917Z,15.68
2022-10-13T13:29:56.212Z,15.68
2022-10-13T13:32:25.755Z,15.69
2022-10-13T13:34:52.908Z,15.67
2022-10-13T13:37:31.351Z,15.67
2022-10-13T13:39:59.100Z,15.66
2022-10-13T13:42:28.702Z,15.68
2022-10-13T13:44:56.553Z,15.71
2022-10-13T13:47:28.800Z,15.72
2022-10-13T13:49:57.337Z,15.73
2022-10-13T13:52:25.821Z,15.75
2022-10-13T13:54:53.209Z,15.75
2022-10-13T13:57:21.342Z,15.77
2022-10-13T13:59:48.486Z,15.79
2022-10-13T14:02:19.731Z,15.81
2022-10-13T14:04:47.186Z,15.81
2022-10-13T14:07:14.779Z,15.81
2022-10-13T14:09:43.140Z,15.81
2022-10-13T14:12:11.248Z,15.79
2022-10-13T14:14:38.503Z,15.78
2022-10-13T14:17:05.919Z,15.77
2022-10-13T14:19:33.450Z,15.76
2022-10-13T14:22:04.750Z,15.77
2022-10-13T14:24:35.615Z,15.79
2022-10-13T14:27:02.566Z,15.81
2022-10-13T14:29:30.153Z,15.81
2022-10-13T14:31:57.401Z,15.78
2022-10-13T14:34:24.485Z,15.78
2022-10-13T14:36:51.628Z,15.77
2022-10-13T14:39:18.865Z,15.76
2022-10-13T14:41:45.892Z,15.78
2022-10-13T14:44:14.376Z,15.75
2022-10-13T14:46:42.077Z,15.77
2022-10-13T14:49:11.243Z,15.78
2022-10-13T14:51:38.292Z,15.81
2022-10-13T14:54:07.277Z,15.83
2022-10-13T14:56:34.786Z,15.79
2022-10-13T14:59:04.603Z,15.81
2022-10-13T15:01:33.676Z,15.82
2022-10-13T15:04:02.203Z,15.80
2022-10-13T15:06:29.682Z,15.80
2022-10-13T15:08:57.566Z,15.81
2022-10-13T15:11:25.610Z,15.85
2022-10-13T15:13:52.994Z,15.92
2022-10-13T15:16:32.933Z,15.97
2022-10-13T15:19:00.160Z,15.97
2022-10-13T15:21:27.257Z,16.00
2022-10-13T15:23:54.195Z,16.03
2022-10-13T15:26:21.598Z,16.04
2022-10-13T15:28:51.830Z,16.07
2022-10-13T15:31:20.540Z,16.10
2022-10-13T15:33:51.925Z,16.13
2022-10-13T15:36:20.554Z,16.17
2022-10-13T15:38:47.651Z,16.21
2022-10-13T15:41:15.168Z,16.21
2022-10-13T15:43:42.187Z,16.22
2022-10-13T15:46:13.156Z,16.25
2022-10-13T15:48:40.473Z,16.27
2022-10-13T15:51:15.959Z,16.29
2022-10-13T15:53:43.104Z,16.31
2022-10-13T15:56:10.109Z,16.35
2022-10-13T15:58:37.327Z,16.35
2022-10-13T16:01:12.342Z,16.34
2022-10-13T16:03:39.513Z,16.33
2022-10-13T16:06:08.325Z,16.32
2022-10-13T16:08:40.055Z,16.31
2022-10-13T16:11:12.949Z,16.33
2022-10-13T16:13:40.970Z,16.35
2022-10-13T16:16:08.480Z,16.39
2022-10-13T16:18:37.867Z,16.44
2022-10-13T16:21:31.429Z,16.49
2022-10-13T16:23:59.657Z,16.58
2022-10-13T16:26:27.272Z,16.62
2022-10-13T16:28:56.027Z,16.67
2022-10-13T16:31:23.122Z,16.72
2022-10-13T16:33:50.019Z,16.77
2022-10-13T16:36:19.114Z,16.80
2022-10-13T16:38:47.205Z,16.84
2022-10-13T16:41:17.312Z,16.84
2022-10-13T16:43:45.399Z,16.90
2022-10-13T16:46:14.461Z,16.96
2022-10-13T16:48:42.900Z,17.04
2022-10-13T16:51:13.447Z,17.09
2022-10-13T16:53:40.511Z,17.13
2022-10-13T16:56:08.524Z,17.22
2022-10-13T16:58:35.596Z,17.30
2022-10-13T17:01:11.630Z,17.30
2022-10-13T17:03:39.795Z,17.27
2022-10-13T17:06:07.275Z,17.31
2022-10-13T17:08:34.554Z,17.38
2022-10-13T17:11:01.495Z,17.44
2022-10-13T17:13:28.624Z,17.48
2022-10-13T17:15:57.282Z,17.56
2022-10-13T17:18:26.563Z,17.61
2022-10-13T17:20:55.325Z,17.65
2022-10-13T17:23:23.489Z,17.68
2022-10-13T17:25:51.951Z,17.73
2022-10-13T17:28:19.706Z,17.75
2022-10-13T17:31:00.674Z,17.77
2022-10-13T17:33:29.300Z,17.76
2022-10-13T17:36:05.288Z,17.74
2022-10-13T17:38:32.712Z,17.75
2022-10-13T17:41:01.741Z,17.74
2022-10-13T17:43:29.582Z,17.77
2022-10-13T17:46:12.122Z,17.74
2022-10-13T17:48:44.614Z,17.80
2022-10-13T17:51:14.973Z,17.83
2022-10-13T17:53:43.756Z,17.87
2022-10-13T17:56:16.697Z,17.96
2022-10-13T17:58:45.068Z,17.99
2022-10-13T18:01:15.023Z,18.03
2022-10-13T18:03:50.538Z,18.02
2022-10-13T18:06:18.337Z,18.00
2022-10-13T18:08:46.178Z,18.09
2022-10-13T18:11:16.590Z,18.15
2022-10-13T18:13:44.931Z,18.19
2022-10-13T18:16:15.420Z,18.19
2022-10-13T18:18:46.458Z,18.25
2022-10-13T18:21:15.942Z,18.21
2022-10-13T18:23:43.957Z,18.28
2022-10-13T18:26:13.393Z,18.26
2022-10-13T18:28:43.788Z,18.27
2022-10-13T18:31:18.592Z,18.29
2022-10-13T18:33:46.247Z,18.29
2022-10-13T18:36:20.068Z,18.32
2022-10-13T18:38:48.246Z,18.34
2022-10-13T18:41:16.746Z,18.36
2022-10-13T18:43:43.736Z,18.38
2022-10-13T18:46:10.785Z,18.39
2022-10-13T18:48:37.726Z,18.41
2022-10-13T18:51:06.998Z,18.42
2022-10-13T18:53:37.167Z,18.44
2022-10-13T18:56:13.714Z,18.48
2022-10-13T18:58:41.277Z,18.51
2022-10-13T19:01:11.499Z,18.48
2022-10-13T19:03:40.510Z,18.45
2022-10-13T19:06:10.686Z,18.48
2022-10-13T19:08:37.986Z,18.45
2022-10-13T19:11:16.722Z,18.45
2022-10-13T19:13:45.356Z,18.45
2022-10-13T19:16:14.229Z,18.42
2022-10-13T19:18:43.556Z,18.41
2022-10-13T19:21:12.649Z,18.41
2022-10-13T19:23:41.056Z,18.44
2022-10-13T19:26:14.962Z,18.42
2022-10-13T19:28:43.956Z,18.43
2022-10-13T19:31:14.417Z,18.36
2022-10-13T19:33:45.693Z,18.31
2022-10-13T19:36:26.884Z,18.29
2022-10-13T19:38:54.518Z,18.26
2022-10-13T19:41:22.967Z,18.30
2022-10-13T19:43:50.990Z,18.30
2022-10-13T19:46:18.841Z,18.36
2022-10-13T19:48:46.736Z,18.37
2022-10-13T19:51:19.614Z,18.38
2022-10-13T19:53:47.043Z,18.37
2022-10-13T19:56:24.292Z,18.37
2022-10-13T19:58:52.544Z,18.34
2022-10-13T20:01:21.969Z,18.31
2022-10-13T20:03:54.374Z,18.25
2022-10-13T20:06:25.212Z,18.22
2022-10-13T20:08:52.517Z,18.18
2022-10-13T20:11:24.039Z,18.12
2022-10-13T20:13:53.733Z,18.07
2022-10-13T20:16:24.093Z,18.05
2022-10-13T20:19:01.373Z,18.04
2022-10-13T20:21:29.332Z,17.99
2022-10-13T20:23:57.784Z,17.98
2022-10-13T20:26:29.727Z,17.94
2022-10-13T20:28:58.886Z,17.94
2022-10-13T20:31:28.032Z,17.87
2022-10-13T20:33:59.380Z,17.80
2022-10-13T20:36:29.281Z,17.74
2022-10-13T20:38:58.483Z,17.76
2022-10-13T20:41:29.838Z,17.74
2022-10-13T20:44:01.590Z,17.69
2022-10-13T20:46:30.994Z,17.62
2022-10-13T20:49:15.299Z,17.58
2022-10-13T20:51:43.419Z,17.52
2022-10-13T20:54:12.577Z,17.47
2022-10-13T20:56:40.426Z,17.44
2022-10-13T20:59:10.557Z,17.40
2022-10-13T21:01:38.549Z,17.35
2022-10-13T21:04:06.145Z,17.32
2022-10-13T21:06:34.231Z,17.26
2022-10-13T21:09:02.068Z,17.23
2022-10-13T21:11:29.120Z,17.18
2022-10-13T21:13:57.802Z,17.14
2022-10-13T21:16:30.122Z,17.12
2022-10-13T21:18:58.455Z,17.09
2022-10-13T21:21:33.551Z,17.02
2022-10-13T21:24:04.098Z,16.99
2022-10-13T21:26:32.556Z,16.96
2022-10-13T21:29:00.060Z,16.93
2022-10-13T21:31:28.420Z,16.92
2022-10-13T21:33:56.833Z,16.89
2022-10-13T21:36:29.601Z,16.83
2022-10-13T21:38:59.495Z,16.81
2022-10-13T21:41:28.103Z,16.80
2022-10-13T21:43:55.771Z,16.77
2022-10-13T21:46:25.536Z,16.73
2022-10-13T21:48:57.118Z,16.71
2022-10-13T21:51:29.846Z,16.68
2022-10-13T21:53:59.804Z,16.66
2022-10-13T21:56:27.723Z,16.64
2022-10-13T21:58:55.535Z,16.59
2022-10-13T22:01:23.154Z,16.59
2022-10-13T22:03:54.016Z,16.57
2022-10-13T22:06:21.344Z,16.52
2022-10-13T22:08:50.934Z,16.51
2022-10-13T22:11:19.150Z,16.48
2022-10-13T22:13:46.901Z,16.44
2022-10-13T22:16:17.541Z,16.44
2022-10-13T22:18:44.926Z,16.39
2022-10-13T22:21:15.417Z,16.40
2022-10-13T22:23:43.016Z,16.38
2022-10-13T22:26:10.358Z,16.35
2022-10-13T22:28:38.310Z,16.34
2022-10-13T22:31:07.042Z,16.32
2022-10-13T22:33:35.736Z,16.28
2022-10-13T22:36:12.030Z,16.30
2022-10-13T22:38:39.014Z,16.26
2022-10-13T22:41:06.965Z,16.26
2022-10-13T22:43:34.429Z,16.24
2022-10-13T22:46:02.312Z,16.20
2022-10-13T22:48:29.603Z,16.20
2022-10-13T22:50:56.848Z,16.17
2022-10-13T22:53:23.928Z,16.18
2022-10-13T22:55:51.018Z,16.17
2022-10-13T22:58:18.011Z,16.15
2022-10-13T23:00:44.871Z,16.16
2022-10-13T23:03:14.592Z,16.16
2022-10-13T23:05:42.839Z,16.14
2022-10-13T23:08:11.400Z,16.10
2022-10-13T23:10:38.389Z,16.09
2022-10-13T23:13:05.872Z,16.07
2022-10-13T23:15:32.932Z,16.06
2022-10-13T23:17:59.814Z,16.07
2022-10-13T23:20:26.697Z,16.04
2022-10-13T23:22:53.570Z,16.00
2022-10-13T23:25:20.426Z,16.00
2022-10-13T23:27:47.238Z,16.01
2022-10-13T23:30:14.153Z,15.97
2022-10-13T23:32:41.031Z,15.98
2022-10-13T23:35:08.153Z,15.94
2022-10-13T23:37:34.988Z,15.95
2022-10-13T23:40:02.008Z,15.97
2022-10-13T23:42:28.914Z,15.96
2022-10-13T23:44:55.760Z,15.92
2022-10-13T23:47:23.094Z,15.91
2022-10-13T23:49:50.283Z,15.88
2022-10-13T23:52:19.538Z,15.87
2022-10-13T23:54:46.412Z,15.88
2022-10-13T23:57:13.324Z,15.85
2022-10-13T23:59:40.225Z,15.81
